Time;durP1;ratioP1;P1;durP2;ratioP2;P2;SDS_P1;SDS_P2;PMS_P1;PMS_P2;Temp;Humidity;BMP_temperature;BMP_pressure;BME280_temperature;BME280_humidity;BME280_pressure;Samples;Min_cycle;Max_cycle;Signal;HPM_P1;HPM_P2
2023/08/25 00:02:27;;;;;;;7.78;5.78;;;18.90;99.90;;;;;;10139608;29;20236;-86
2023/08/25 00:07:30;;;;;;;8.40;5.95;;;18.80;99.90;;;;;;10122264;29;20208;-86
2023/08/25 00:12:33;;;;;;;6.05;5.55;;;18.70;99.90;;;;;;10153228;29;20208;-85
2023/08/25 00:17:37;;;;;;;8.73;5.50;;;18.50;99.90;;;;;;10177346;29;20203;-86
2023/08/25 00:22:40;;;;;;;9.23;5.35;;;18.40;99.90;;;;;;10177490;29;20630;-86
2023/08/25 00:27:43;;;;;;;6.18;4.65;;;18.60;99.90;;;;;;10175844;29;20200;-85
2023/08/25 00:32:45;;;;;;;6.43;5.72;;;18.80;99.90;;;;;;10177016;29;20267;-85
2023/08/25 00:37:47;;;;;;;8.98;5.68;;;18.80;99.90;;;;;;10176909;29;20259;-86
2023/08/25 00:42:50;;;;;;;7.50;5.32;;;18.70;99.90;;;;;;10159749;29;20279;-86
2023/08/25 00:47:53;;;;;;;5.80;4.15;;;18.80;99.90;;;;;;10157976;29;20200;-85
2023/08/25 00:52:57;;;;;;;6.93;4.53;;;18.70;99.90;;;;;;10158214;29;20203;-85
2023/08/25 00:57:59;;;;;;;4.18;3.83;;;18.60;99.90;;;;;;10158689;29;20267;-85
2023/08/25 01:03:04;;;;;;;8.85;5.65;;;18.80;99.90;;;;;;10157823;29;20235;-85
2023/08/25 01:08:08;;;;;;;5.38;4.88;;;18.90;99.90;;;;;;10142792;29;20199;-85
2023/08/25 01:13:26;;;;;;;5.13;3.67;;;18.90;99.90;;;;;;10138394;29;20233;-86
2023/08/25 01:18:32;;;;;;;5.25;3.70;;;19.00;99.90;;;;;;10157556;29;20275;-85
2023/08/25 01:23:41;;;;;;;11.20;5.90;;;19.40;99.90;;;;;;10154290;29;20248;-85
2023/08/25 01:28:50;;;;;;;4.95;3.60;;;19.50;99.90;;;;;;10117911;29;20636;-85
2023/08/25 01:33:53;;;;;;;7.45;5.63;;;19.70;99.90;;;;;;10141297;29;20211;-86
2023/08/25 01:39:09;;;;;;;3.50;3.20;;;19.80;99.90;;;;;;10174486;29;20579;-86
2023/08/25 01:44:18;;;;;;;10.07;5.80;;;19.80;99.90;;;;;;10132124;29;20228;-86
2023/08/25 01:49:22;;;;;;;8.90;5.40;;;19.70;99.90;;;;;;10116974;29;20212;-86
2023/08/25 01:54:24;;;;;;;7.85;4.10;;;19.40;99.90;;;;;;10161142;29;20674;-86
2023/08/25 01:59:27;;;;;;;7.10;5.07;;;19.30;99.90;;;;;;10156940;29;20205;-86
2023/08/25 02:04:30;;;;;;;7.30;4.97;;;19.10;99.90;;;;;;10173534;29;20655;-85
2023/08/25 02:09:32;;;;;;;4.75;4.32;;;19.10;99.90;;;;;;10140665;29;20203;-85
2023/08/25 02:14:35;;;;;;;6.13;5.00;;;19.10;99.90;;;;;;10141527;29;20275;-86
2023/08/25 02:19:37;;;;;;;6.82;4.68;;;19.00;99.90;;;;;;10135841;29;20211;-86
2023/08/25 02:24:40;;;;;;;4.93;4.38;;;19.00;99.90;;;;;;10155213;29;20227;-86
2023/08/25 02:29:42;;;;;;;7.40;4.60;;;19.00;99.90;;;;;;10171885;29;20574;-86
2023/08/25 02:34:46;;;;;;;7.55;5.13;;;19.10;99.90;;;;;;10105665;29;20290;-85
2023/08/25 02:39:50;;;;;;;6.15;4.30;;;19.10;99.90;;;;;;10133076;29;20244;-86
2023/08/25 02:44:52;;;;;;;6.07;4.72;;;19.00;99.90;;;;;;10115948;29;20774;-86
2023/08/25 02:49:55;;;;;;;7.63;5.30;;;19.10;99.90;;;;;;10132442;29;20209;-86
2023/08/25 02:54:57;;;;;;;6.88;5.25;;;19.00;99.90;;;;;;10126902;29;20208;-85
2023/08/25 03:00:00;;;;;;;14.32;6.88;;;18.80;99.90;;;;;;10139060;29;20199;-85
2023/08/25 03:05:03;;;;;;;7.47;6.72;;;18.70;99.90;;;;;;10170215;29;20317;-85
2023/08/25 03:10:07;;;;;;;8.77;6.80;;;18.60;99.90;;;;;;10153445;29;20228;-85
2023/08/25 03:15:11;;;;;;;6.20;5.60;;;18.60;99.90;;;;;;10161505;29;20259;-85
2023/08/25 03:20:15;;;;;;;6.30;5.70;;;18.80;99.90;;;;;;10161127;29;20211;-86
2023/08/25 03:25:18;;;;;;;8.30;7.47;;;18.90;99.90;;;;;;10146157;29;20275;-86
2023/08/25 03:30:21;;;;;;;9.38;7.28;;;18.80;99.90;;;;;;10178244;29;20655;-86
2023/08/25 03:35:23;;;;;;;8.93;6.93;;;18.60;99.90;;;;;;10161632;29;20583;-85
2023/08/25 03:40:27;;;;;;;8.75;6.18;;;18.50;99.90;;;;;;10134701;29;20204;-85
2023/08/25 03:45:30;;;;;;;7.28;6.15;;;18.50;99.90;;;;;;10135105;29;20236;-86
2023/08/25 03:50:32;;;;;;;9.55;7.80;;;18.70;99.90;;;;;;10151919;29;20248;-86
2023/08/25 03:55:35;;;;;;;7.15;6.50;;;18.80;99.90;;;;;;10152348;29;20245;-85
2023/08/25 04:00:37;;;;;;;5.25;4.00;;;18.90;99.90;;;;;;10138111;29;20227;-86
2023/08/25 04:05:40;;;;;;;4.38;3.95;;;19.10;99.90;;;;;;10150341;29;20263;-85
2023/08/25 04:10:43;;;;;;;8.48;6.93;;;19.30;99.90;;;;;;10129054;29;20256;-85
2023/08/25 04:15:56;;;;;;;8.18;7.38;;;19.30;99.90;;;;;;10119753;29;20243;-85
2023/08/25 04:21:00;;;;;;;20.25;10.23;;;19.10;99.90;;;;;;10141164;29;20267;-85
2023/08/25 04:26:04;;;;;;;11.20;7.82;;;18.90;99.90;;;;;;10153993;29;20266;-85
2023/08/25 04:31:07;;;;;;;8.02;7.10;;;18.80;99.90;;;;;;10160632;29;20239;-87
2023/08/25 04:36:13;;;;;;;8.00;7.05;;;18.80;99.90;;;;;;10145916;29;20308;-85
2023/08/25 04:41:16;;;;;;;7.45;6.78;;;18.90;99.90;;;;;;10152799;29;20271;-85
2023/08/25 04:46:19;;;;;;;13.43;8.85;;;19.10;99.90;;;;;;10153484;29;20255;-84
2023/08/25 04:51:22;;;;;;;10.75;7.57;;;19.10;99.90;;;;;;10121243;29;20232;-85
2023/08/25 04:56:24;;;;;;;8.15;6.88;;;19.30;99.90;;;;;;10115453;29;20252;-84
2023/08/25 05:01:28;;;;;;;9.40;8.23;;;19.70;99.90;;;;;;10116331;29;20256;-84
2023/08/25 05:06:31;;;;;;;14.02;9.35;;;19.80;99.90;;;;;;10150905;29;20323;-84
2023/08/25 05:11:36;;;;;;;13.95;10.02;;;19.80;99.90;;;;;;10130021;29;20734;-85
2023/08/25 05:16:39;;;;;;;10.98;9.30;;;20.00;99.90;;;;;;10136776;29;20306;-84
2023/08/25 05:21:58;;;;;;;10.88;8.65;;;19.90;99.90;;;;;;10153204;29;20212;-84
2023/08/25 05:27:01;;;;;;;12.13;10.75;;;20.00;99.90;;;;;;10151699;29;20277;-84
2023/08/25 05:32:04;;;;;;;8.25;7.43;;;20.10;99.90;;;;;;10152573;29;20294;-84
2023/08/25 05:37:35;;;;;;;9.82;7.10;;;20.00;99.90;;;;;;10140310;29;20708;-84
2023/08/25 05:42:38;;;;;;;6.35;4.95;;;20.40;99.90;;;;;;10116043;29;20289;-84
2023/08/25 05:47:41;;;;;;;9.57;8.45;;;20.60;99.90;;;;;;10118316;29;20236;-88
2023/08/25 05:52:45;;;;;;;11.02;8.80;;;21.00;99.90;;;;;;10128883;29;20309;-88
2023/08/25 05:57:47;;;;;;;11.65;8.38;;;21.20;99.90;;;;;;10128547;29;20270;-88
2023/08/25 06:02:50;;;;;;;13.02;10.38;;;21.10;99.90;;;;;;10112965;29;20287;-87
2023/08/25 06:07:54;;;;;;;13.75;9.88;;;21.20;99.90;;;;;;10138803;29;20292;-88
2023/08/25 06:12:57;;;;;;;16.52;11.38;;;21.40;99.90;;;;;;10149505;29;20235;-87
2023/08/25 06:17:59;;;;;;;13.23;11.27;;;21.50;99.90;;;;;;10152948;29;20215;-87
2023/08/25 06:23:02;;;;;;;15.23;11.55;;;21.30;99.90;;;;;;10143173;29;20302;-88
2023/08/25 06:28:05;;;;;;;11.10;10.10;;;21.30;99.90;;;;;;10152683;29;20207;-87
2023/08/25 06:33:09;;;;;;;14.65;11.35;;;21.30;99.90;;;;;;10121884;29;20220;-88
2023/08/25 06:38:12;;;;;;;11.85;9.98;;;21.40;99.90;;;;;;10130420;29;20268;-88
2023/08/25 06:43:15;;;;;;;10.73;7.72;;;21.40;99.90;;;;;;10134475;29;20303;-88
2023/08/25 06:48:17;;;;;;;9.07;8.15;;;21.70;99.90;;;;;;10161017;29;20228;-88
2023/08/25 06:53:20;;;;;;;11.35;8.60;;;21.90;99.90;;;;;;10151178;29;20266;-89
2023/08/25 06:58:23;;;;;;;10.60;7.00;;;21.90;99.90;;;;;;10140146;29;20237;-88
2023/08/25 07:03:25;;;;;;;11.35;7.72;;;21.90;99.90;;;;;;10150388;29;20306;-89
2023/08/25 07:08:28;;;;;;;12.38;11.07;;;22.20;99.90;;;;;;10111927;29;20272;-88
2023/08/25 07:13:34;;;;;;;9.60;8.02;;;22.50;99.90;;;;;;10165765;29;20246;-88
2023/08/25 07:18:36;;;;;;;10.68;8.35;;;22.50;99.90;;;;;;10134179;29;20279;-88
2023/08/25 07:23:41;;;;;;;8.68;7.70;;;22.50;99.90;;;;;;10166781;29;20976;-88
2023/08/25 07:28:43;;;;;;;8.77;6.63;;;22.60;99.90;;;;;;10148087;29;20756;-89
2023/08/25 07:33:46;;;;;;;10.85;9.10;;;22.90;99.90;;;;;;10148676;29;20247;-88
2023/08/25 07:38:49;;;;;;;9.32;8.43;;;23.20;99.90;;;;;;10156718;29;20251;-88
2023/08/25 07:43:51;;;;;;;13.02;11.27;;;23.20;99.90;;;;;;10128293;29;20287;-89
2023/08/25 07:48:54;;;;;;;11.05;9.90;;;23.30;99.90;;;;;;10140336;29;20700;-89
2023/08/25 07:53:56;;;;;;;11.95;8.50;;;23.40;99.90;;;;;;10147655;29;20298;-88
2023/08/25 07:58:59;;;;;;;11.35;8.55;;;23.60;99.90;;;;;;10152946;29;20247;-89
2023/08/25 08:04:03;;;;;;;9.02;6.57;;;23.80;99.90;;;;;;10171090;29;20321;-89
2023/08/25 08:09:09;;;;;;;24.63;9.52;;;24.00;99.90;;;;;;10155306;29;20235;-89
2023/08/25 08:14:11;;;;;;;5.70;4.95;;;24.30;99.90;;;;;;10152590;29;20239;-88
2023/08/25 08:19:14;;;;;;;10.15;9.10;;;24.50;99.90;;;;;;10172592;29;20267;-88
2023/08/25 08:24:17;;;;;;;9.10;7.53;;;24.70;99.90;;;;;;10170990;29;20270;-88
2023/08/25 08:29:20;;;;;;;9.32;8.30;;;24.80;99.90;;;;;;10154216;29;20694;-88
2023/08/25 08:34:23;;;;;;;12.75;10.63;;;25.00;99.90;;;;;;10142178;29;20291;-88
2023/08/25 08:39:27;;;;;;;6.03;5.43;;;25.10;98.40;;;;;;10154038;29;20291;-88
2023/08/25 08:44:32;;;;;;;7.57;6.40;;;25.30;99.90;;;;;;10171578;29;20744;-88
2023/08/25 08:49:38;;;;;;;9.55;8.20;;;25.40;99.90;;;;;;10153469;29;20657;-88
2023/08/25 08:54:43;;;;;;;5.78;5.25;;;25.60;99.70;;;;;;10170024;29;20273;-88
2023/08/25 08:59:47;;;;;;;10.43;8.60;;;25.70;99.90;;;;;;10153668;29;20250;-88
2023/08/25 09:04:52;;;;;;;9.27;8.48;;;25.80;98.50;;;;;;10153679;29;20255;-88
2023/08/25 09:09:56;;;;;;;12.93;11.68;;;25.90;98.30;;;;;;10154821;29;20256;-88
2023/08/25 09:14:59;;;;;;;10.90;9.30;;;26.00;97.50;;;;;;10115015;29;20240;-89
2023/08/25 09:20:05;;;;;;;17.83;13.38;;;26.20;97.30;;;;;;10147549;29;20766;-89
2023/08/25 09:25:08;;;;;;;9.77;8.25;;;26.30;97.00;;;;;;10106678;29;20276;-89
2023/08/25 09:30:11;;;;;;;8.02;6.63;;;26.40;97.20;;;;;;10167254;29;20239;-89
2023/08/25 09:35:18;;;;;;;16.13;13.77;;;26.50;96.90;;;;;;10167182;29;20705;-88
2023/08/25 09:40:21;;;;;;;10.90;9.88;;;26.60;95.20;;;;;;10152348;29;20239;-89
2023/08/25 09:45:27;;;;;;;4.47;4.07;;;26.70;95.90;;;;;;10170431;29;21040;-89
2023/08/25 09:50:39;;;;;;;7.65;6.82;;;26.80;96.30;;;;;;10169435;29;20235;-89
2023/08/25 09:55:44;;;;;;;11.90;9.52;;;26.90;95.60;;;;;;10139419;29;20565;-89
2023/08/25 10:00:46;;;;;;;9.88;7.55;;;26.90;94.80;;;;;;10164155;29;20724;-89
2023/08/25 10:05:49;;;;;;;5.05;4.60;;;27.00;94.80;;;;;;10128676;29;20301;-89
2023/08/25 10:10:54;;;;;;;8.32;7.50;;;27.10;95.60;;;;;;10111963;29;20295;-89
2023/08/25 10:16:00;;;;;;;6.20;5.63;;;27.10;93.50;;;;;;10129240;29;20232;-89
2023/08/25 10:21:06;;;;;;;8.52;7.38;;;27.20;93.20;;;;;;10135115;29;20291;-89
2023/08/25 10:26:09;;;;;;;6.90;6.28;;;27.30;93.40;;;;;;10158937;29;20259;-88
2023/08/25 10:31:13;;;;;;;10.20;7.20;;;27.40;94.00;;;;;;10167250;29;20235;-88
2023/08/25 10:36:18;;;;;;;5.25;4.75;;;27.40;92.20;;;;;;10149466;29;20263;-89
2023/08/25 10:41:23;;;;;;;11.02;8.35;;;27.40;92.90;;;;;;10133922;29;20322;-88
2023/08/25 10:46:25;;;;;;;9.07;8.20;;;27.20;86.60;;;;;;10117544;29;20260;-88
2023/08/25 10:51:45;;;;;;;9.27;8.40;;;27.20;85.00;;;;;;10128706;29;20231;-88
2023/08/25 10:56:47;;;;;;;14.15;8.80;;;27.20;83.80;;;;;;10126740;29;20243;-88
2023/08/25 11:01:55;;;;;;;9.23;8.30;;;27.30;83.10;;;;;;10127707;29;20331;-88
2023/08/25 11:06:59;;;;;;;9.50;8.13;;;27.40;81.90;;;;;;10112480;29;20256;-88
2023/08/25 11:12:06;;;;;;;7.45;6.75;;;27.40;82.00;;;;;;10128270;29;20272;-88
2023/08/25 11:17:10;;;;;;;8.52;7.70;;;27.40;81.60;;;;;;10126429;29;20244;-87
2023/08/25 11:22:13;;;;;;;7.65;7.00;;;27.50;79.50;;;;;;10127908;29;20255;-87
2023/08/25 11:27:16;;;;;;;9.68;8.73;;;27.50;80.90;;;;;;10126237;29;20271;-87
2023/08/25 11:32:19;;;;;;;12.30;9.18;;;27.50;79.90;;;;;;10136254;29;20658;-88
2023/08/25 11:37:21;;;;;;;18.38;8.57;;;27.50;80.50;;;;;;10173013;29;20721;-88
2023/08/25 11:42:25;;;;;;;17.02;9.00;;;27.50;80.30;;;;;;10173515;29;20243;-88
2023/08/25 11:47:28;;;;;;;12.88;9.40;;;27.60;81.40;;;;;;10154653;29;20295;-88
2023/08/25 11:52:32;;;;;;;12.05;8.38;;;27.60;81.80;;;;;;10151062;29;20679;-88
2023/08/25 11:57:36;;;;;;;11.65;8.52;;;27.70;83.60;;;;;;10136220;29;20739;-89
2023/08/25 12:02:39;;;;;;;7.95;6.78;;;27.90;84.30;;;;;;10151587;29;20648;-89
2023/08/25 12:07:42;;;;;;;11.27;7.18;;;28.00;84.50;;;;;;10136242;29;20264;-89
2023/08/25 12:12:45;;;;;;;8.77;7.88;;;28.10;84.00;;;;;;10145238;29;20263;-89
2023/08/25 12:17:51;;;;;;;8.32;7.63;;;28.20;81.90;;;;;;10150318;29;20271;-90
2023/08/25 12:22:59;;;;;;;8.88;8.00;;;28.30;85.10;;;;;;10171125;29;20239;-89
2023/08/25 12:28:02;;;;;;;9.98;7.07;;;28.30;81.80;;;;;;10132684;29;20319;-90
2023/08/25 12:33:05;;;;;;;10.57;7.50;;;28.30;85.50;;;;;;10159488;29;20283;-89
2023/08/25 12:38:08;;;;;;;8.57;7.68;;;28.20;87.20;;;;;;10102596;29;20263;-89
2023/08/25 12:43:11;;;;;;;7.90;7.18;;;28.30;87.30;;;;;;10114050;29;20291;-90
2023/08/25 12:48:14;;;;;;;12.82;7.97;;;;;;;;;;10129588;29;20319;-89
2023/08/25 12:53:16;;;;;;;8.57;5.90;;;28.60;90.50;;;;;;10111111;29;20699;-89
2023/08/25 12:58:19;;;;;;;9.77;7.03;;;28.40;84.70;;;;;;10133668;29;20644;-89
2023/08/25 13:03:22;;;;;;;8.23;7.55;;;28.50;85.50;;;;;;10129238;29;21292;-89
2023/08/25 13:08:25;;;;;;;7.57;6.78;;;28.60;83.60;;;;;;10118072;29;20260;-88
2023/08/25 13:13:28;;;;;;;8.57;7.68;;;28.60;83.90;;;;;;10095171;29;20237;-89
2023/08/25 13:18:31;;;;;;;9.80;6.88;;;28.70;81.60;;;;;;10114500;29;20252;-89
2023/08/25 13:23:33;;;;;;;7.53;6.63;;;28.70;83.90;;;;;;10121324;29;20244;-89
2023/08/25 13:28:49;;;;;;;11.27;8.98;;;28.70;84.50;;;;;;10130169;29;20746;-89
2023/08/25 13:33:53;;;;;;;8.07;6.75;;;28.80;79.70;;;;;;10128673;29;20236;-88
2023/08/25 13:38:55;;;;;;;6.85;6.15;;;28.70;84.40;;;;;;10169237;29;20247;-89
2023/08/25 13:44:05;;;;;;;11.85;7.60;;;28.90;84.20;;;;;;10141707;29;20319;-89
2023/08/25 13:49:07;;;;;;;9.68;7.97;;;29.10;80.10;;;;;;10162173;29;20292;-88
2023/08/25 13:54:10;;;;;;;7.78;7.07;;;29.10;76.60;;;;;;10125734;29;20695;-87
2023/08/25 13:59:13;;;;;;;12.95;8.35;;;29.10;73.40;;;;;;10156815;29;20263;-87
2023/08/25 14:04:16;;;;;;;9.27;8.45;;;29.00;73.10;;;;;;10148498;29;20239;-88
2023/08/25 14:09:19;;;;;;;9.02;8.13;;;28.90;72.70;;;;;;10129256;29;20761;-88
2023/08/25 14:14:22;;;;;;;9.27;8.35;;;28.80;75.80;;;;;;10142776;29;20290;-88
2023/08/25 14:19:25;;;;;;;7.82;7.13;;;28.80;77.80;;;;;;10151830;29;20239;-88
2023/08/25 14:24:28;;;;;;;8.80;7.97;;;28.70;77.60;;;;;;10117909;29;20256;-88
2023/08/25 14:29:31;;;;;;;8.48;7.68;;;28.70;76.60;;;;;;10145285;29;20239;-88
2023/08/25 14:34:34;;;;;;;9.35;8.57;;;28.80;78.00;;;;;;10150821;29;20302;-87
2023/08/25 14:39:36;;;;;;;9.45;7.97;;;28.80;77.60;;;;;;10139574;29;20243;-89
2023/08/25 14:44:39;;;;;;;9.00;8.25;;;28.80;77.40;;;;;;10122148;29;20259;-88
2023/08/25 14:49:42;;;;;;;8.93;7.95;;;28.80;78.40;;;;;;10139557;29;20640;-88
2023/08/25 14:54:45;;;;;;;8.65;6.88;;;28.80;78.60;;;;;;10150689;29;20691;-88
2023/08/25 14:59:48;;;;;;;10.05;7.55;;;28.70;75.90;;;;;;10166383;29;20267;-88
2023/08/25 15:04:52;;;;;;;8.48;7.68;;;28.50;78.10;;;;;;10165806;29;20706;-88
2023/08/25 15:09:57;;;;;;;7.57;6.97;;;28.50;79.00;;;;;;10164121;29;20231;-88
2023/08/25 15:15:00;;;;;;;8.27;7.57;;;28.40;79.90;;;;;;10136003;29;20272;-88
2023/08/25 15:20:03;;;;;;;8.50;7.65;;;28.40;81.80;;;;;;10135450;29;20841;-88
2023/08/25 15:25:06;;;;;;;7.72;7.13;;;28.40;82.30;;;;;;10152885;29;20262;-88
2023/08/25 15:30:09;;;;;;;8.50;7.80;;;28.40;82.60;;;;;;10155993;29;20274;-88
2023/08/25 15:35:11;;;;;;;10.15;8.38;;;28.40;83.00;;;;;;10143214;29;20657;-88
2023/08/25 15:40:14;;;;;;;7.88;7.18;;;28.50;83.00;;;;;;10118115;29;20247;-88
2023/08/25 15:45:17;;;;;;;8.00;7.30;;;28.40;82.50;;;;;;10165236;29;20283;-88
2023/08/25 15:50:20;;;;;;;7.28;6.70;;;28.30;83.10;;;;;;10165842;29;20243;-88
2023/08/25 15:55:22;;;;;;;7.63;7.03;;;28.20;84.10;;;;;;10173067;29;20270;-88
2023/08/25 16:00:25;;;;;;;8.50;7.63;;;28.10;84.50;;;;;;10170084;29;20232;-88
2023/08/25 16:05:27;;;;;;;9.02;8.23;;;28.00;84.30;;;;;;10155440;29;20686;-88
2023/08/25 16:10:30;;;;;;;8.07;7.25;;;28.00;86.40;;;;;;10139525;29;20623;-88
2023/08/25 16:15:36;;;;;;;15.20;8.75;;;27.90;85.40;;;;;;10156047;29;20694;-88
2023/08/25 16:20:39;;;;;;;8.38;7.32;;;27.90;83.90;;;;;;10168596;29;20240;-87
2023/08/25 16:25:43;;;;;;;8.07;7.38;;;27.80;86.60;;;;;;10172020;29;20263;-87
2023/08/25 16:30:45;;;;;;;8.57;7.78;;;27.70;87.90;;;;;;10171659;29;20619;-87
2023/08/25 16:35:48;;;;;;;8.18;7.47;;;27.60;87.90;;;;;;10136992;29;20301;-87
2023/08/25 16:40:50;;;;;;;10.15;9.13;;;27.50;87.90;;;;;;10153862;29;20243;-88
2023/08/25 16:45:53;;;;;;;10.05;7.80;;;27.40;89.10;;;;;;10170866;29;20903;-87
2023/08/25 16:50:55;;;;;;;12.00;9.75;;;27.30;90.30;;;;;;10167376;29;20277;-88
2023/08/25 16:55:58;;;;;;;13.35;10.10;;;27.10;90.70;;;;;;10156333;29;20299;-88
2023/08/25 17:01:02;;;;;;;12.13;10.23;;;26.90;90.40;;;;;;10151863;29;20264;-88
2023/08/25 17:06:05;;;;;;;10.52;9.20;;;26.70;92.60;;;;;;10159395;29;20255;-89
2023/08/25 17:11:08;;;;;;;13.80;10.02;;;26.60;92.50;;;;;;10144638;29;20287;-89
2023/08/25 17:16:14;;;;;;;13.63;10.38;;;26.50;93.60;;;;;;10129927;29;20240;-88
2023/08/25 17:21:20;;;;;;;17.40;9.05;;;26.40;93.20;;;;;;10155422;29;20292;-89
2023/08/25 17:26:22;;;;;;;12.25;10.45;;;26.20;92.20;;;;;;10129360;29;20251;-90
2023/08/25 17:31:25;;;;;;;15.35;11.35;;;26.20;93.20;;;;;;10150181;29;20231;-90
2023/08/25 17:36:28;;;;;;;10.70;9.70;;;26.10;93.50;;;;;;10140182;29;20259;-90
2023/08/25 17:41:31;;;;;;;13.02;10.15;;;26.20;93.20;;;;;;10150327;29;20239;-91
2023/08/25 17:46:33;;;;;;;12.85;10.18;;;26.10;92.00;;;;;;9823889;29;9999914;-91
2023/08/25 17:51:36;;;;;;;12.85;10.20;;;26.10;93.00;;;;;;10166640;29;20267;-92
2023/08/25 17:56:38;;;;;;;16.52;9.70;;;26.20;93.60;;;;;;10103582;29;20662;-91
2023/08/25 18:01:41;;;;;;;11.38;8.95;;;26.20;93.40;;;;;;10152613;29;20244;-92
2023/08/25 18:06:44;;;;;;;14.35;9.55;;;26.20;92.10;;;;;;10132433;29;20255;-91
2023/08/25 18:11:47;;;;;;;11.27;9.73;;;26.10;91.70;;;;;;10149211;29;20693;-92
2023/08/25 18:16:50;;;;;;;11.15;8.68;;;26.10;93.10;;;;;;10147480;29;20243;-91
2023/08/25 18:21:52;;;;;;;13.13;9.77;;;25.90;92.10;;;;;;10165793;29;20311;-91
2023/08/25 18:26:55;;;;;;;16.30;9.32;;;25.60;92.80;;;;;;10169108;29;20251;-90
2023/08/25 18:31:58;;;;;;;13.00;9.00;;;25.40;93.90;;;;;;10134648;29;20642;-91
2023/08/25 18:37:04;;;;;;;11.73;10.52;;;25.20;95.10;;;;;;10127293;29;20271;-91
2023/08/25 18:42:07;;;;;;;12.45;11.23;;;25.00;96.60;;;;;;10154152;29;20292;-90
2023/08/25 18:47:10;;;;;;;11.35;10.15;;;24.90;98.30;;;;;;10125885;29;20286;-90
2023/08/25 18:52:13;;;;;;;11.63;9.25;;;24.70;99.90;;;;;;10158725;29;20291;-90
2023/08/25 18:57:19;;;;;;;11.98;10.63;;;24.40;99.70;;;;;;10150987;29;20886;-91
2023/08/25 19:02:26;;;;;;;11.85;10.57;;;24.30;99.90;;;;;;10140930;29;20957;-90
2023/08/25 19:07:29;;;;;;;18.02;11.68;;;;;;;;;;10125078;29;20312;-91
2023/08/25 19:12:32;;;;;;;15.95;12.27;;;24.00;99.90;;;;;;10141433;29;20231;-90
2023/08/25 19:17:34;;;;;;;11.88;10.63;;;23.90;99.90;;;;;;10163914;29;20235;-90
2023/08/25 19:22:40;;;;;;;12.07;10.88;;;23.80;99.90;;;;;;10162649;29;20235;-90
2023/08/25 19:27:46;;;;;;;12.07;10.98;;;23.80;99.90;;;;;;10150104;29;20297;-91
2023/08/25 19:32:49;;;;;;;14.90;11.85;;;23.80;99.90;;;;;;10132068;29;20308;-90
2023/08/25 19:37:51;;;;;;;16.77;12.00;;;23.70;99.90;;;;;;10108518;29;20279;-90
2023/08/25 19:42:54;;;;;;;15.77;11.57;;;23.80;99.90;;;;;;10126110;29;20291;-91
2023/08/25 19:47:57;;;;;;;12.80;11.50;;;23.80;99.90;;;;;;9816380;29;9999688;-91
2023/08/25 19:53:00;;;;;;;11.98;10.13;;;23.80;99.90;;;;;;10134915;29;20715;-91
2023/08/25 19:58:03;;;;;;;12.27;10.27;;;23.70;99.90;;;;;;10152690;29;20322;-91
2023/08/25 20:03:07;;;;;;;13.55;11.10;;;23.70;99.90;;;;;;10131272;29;20303;-91
2023/08/25 20:08:10;;;;;;;9.73;8.82;;;23.80;99.90;;;;;;10134156;29;20255;-91
2023/08/25 20:13:12;;;;;;;9.82;8.88;;;23.90;99.90;;;;;;10168753;29;20240;-89
2023/08/25 20:18:19;;;;;;;12.75;9.88;;;24.00;99.90;;;;;;10140288;29;20244;-89
2023/08/25 20:23:22;;;;;;;10.95;9.77;;;23.90;99.90;;;;;;10113941;29;20240;-91
2023/08/25 20:28:25;;;;;;;9.80;8.88;;;23.90;99.90;;;;;;10129682;29;20268;-91
2023/08/25 20:33:28;;;;;;;9.70;7.97;;;23.90;99.90;;;;;;10134536;29;20252;-89
2023/08/25 20:38:31;;;;;;;9.10;8.30;;;24.00;99.90;;;;;;10160467;29;20747;-87
2023/08/25 20:43:34;;;;;;;13.25;8.57;;;24.10;99.90;;;;;;10151936;29;20235;-87
2023/08/25 20:48:48;;;;;;;7.93;7.22;;;24.20;99.90;;;;;;10167456;29;20271;-87
2023/08/25 20:53:54;;;;;;;11.68;7.82;;;24.30;99.90;;;;;;10158725;29;20720;-88
2023/08/25 20:58:57;;;;;;;9.75;8.45;;;24.30;99.90;;;;;;10158107;29;20310;-89
2023/08/25 21:04:00;;;;;;;9.30;8.40;;;24.40;99.90;;;;;;10167799;29;20247;-89
2023/08/25 21:09:03;;;;;;;11.15;8.27;;;24.40;99.90;;;;;;10139278;29;20259;-88
2023/08/25 21:14:05;;;;;;;11.57;8.65;;;24.40;99.90;;;;;;10148478;29;20236;-89
2023/08/25 21:19:09;;;;;;;9.32;8.30;;;24.40;99.90;;;;;;10159245;29;20232;-89
2023/08/25 21:24:12;;;;;;;9.57;8.27;;;24.50;99.90;;;;;;10164724;29;20251;-90
2023/08/25 21:29:14;;;;;;;10.07;9.18;;;24.50;99.90;;;;;;10141972;29;20291;-92
2023/08/25 21:34:17;;;;;;;10.20;9.20;;;24.50;99.90;;;;;;10145416;29;20718;-91
2023/08/25 21:39:19;;;;;;;12.35;9.70;;;24.40;99.90;;;;;;10158074;29;20234;-91
2023/08/25 21:44:22;;;;;;;8.15;7.32;;;24.40;99.90;;;;;;10164059;29;20294;-91
2023/08/25 21:49:25;;;;;;;16.02;8.95;;;24.30;99.90;;;;;;10159623;29;20669;-92
2023/08/25 21:54:27;;;;;;;9.45;8.38;;;24.20;99.90;;;;;;10156020;29;20227;-92
2023/08/25 21:59:30;;;;;;;17.23;10.60;;;23.90;99.90;;;;;;10133702;29;20267;-92
2023/08/25 22:04:33;;;;;;;12.38;9.63;;;23.70;99.90;;;;;;10129666;29;20243;-92
2023/08/25 22:09:36;;;;;;;12.27;9.48;;;23.40;99.90;;;;;;10150494;29;20263;-92
2023/08/25 22:14:38;;;;;;;10.23;9.23;;;23.30;99.90;;;;;;10134947;29;20207;-92
2023/08/25 22:19:41;;;;;;;7.25;6.63;;;23.20;99.90;;;;;;10149637;29;20762;-92
2023/08/25 22:24:54;;;;;;;6.97;6.28;;;23.20;99.90;;;;;;10151639;29;20251;-91
2023/08/25 22:29:57;;;;;;;9.88;6.35;;;23.20;99.90;;;;;;10148234;29;20284;-92
2023/08/25 22:35:00;;;;;;;8.57;6.55;;;23.30;99.90;;;;;;10165827;29;20644;-91
2023/08/25 22:40:03;;;;;;;8.20;7.55;;;23.30;99.90;;;;;;10154668;29;20694;-92
2023/08/25 22:45:06;;;;;;;12.93;8.73;;;23.30;99.90;;;;;;10154473;29;20232;-91
2023/08/25 22:50:09;;;;;;;11.35;9.38;;;23.20;99.90;;;;;;10156496;29;20294;-91
2023/08/25 22:55:12;;;;;;;7.40;6.63;;;22.90;99.90;;;;;;10128084;29;20204;-91
2023/08/25 23:00:15;;;;;;;9.70;6.88;;;22.60;99.90;;;;;;10149970;29;20236;-91
2023/08/25 23:05:17;;;;;;;8.63;6.57;;;22.40;99.90;;;;;;10141477;29;20291;-92
2023/08/25 23:10:20;;;;;;;9.38;6.43;;;22.40;99.90;;;;;;10143449;29;20736;-91
2023/08/25 23:15:22;;;;;;;5.88;5.32;;;22.40;99.90;;;;;;10124124;29;20248;-91
2023/08/25 23:20:27;;;;;;;5.72;5.20;;;22.40;99.90;;;;;;10128932;29;20251;-91
2023/08/25 23:25:29;;;;;;;6.18;5.53;;;22.30;99.90;;;;;;10152168;29;20271;-91
2023/08/25 23:30:32;;;;;;;6.30;5.63;;;22.20;99.90;;;;;;10170123;29;20289;-91
2023/08/25 23:35:36;;;;;;;5.78;4.65;;;22.10;99.90;;;;;;10151768;29;20640;-91
2023/08/25 23:40:41;;;;;;;6.35;5.75;;;22.10;99.90;;;;;;10163465;29;20244;-92
2023/08/25 23:45:43;;;;;;;8.20;6.72;;;22.20;99.90;;;;;;10139278;29;20643;-91
2023/08/25 23:50:46;;;;;;;6.85;6.25;;;22.20;99.90;;;;;;10156998;29;20263;-91
2023/08/25 23:55:48;;;;;;;8.52;6.03;;;22.60;99.90;;;;;;10159264;29;20290;-91
